Flight Track Log - Related Links

Times and Time Zones

All times are in EDT time to prevent confusion due to time zone crossing. See the SWA232 flight status page for this flight to view local times or setup timezone preferences in your user account.

Time Position Orientation Groundspeed Altitude Reporting Facility
EDT Latitude Longitude Course Direction KTS MPH feet Rate Location/Type
Sun 09:54:45 AM 41.8000 -87.8167 255° West 247 284 3,000  Level Chicago TRACON
Sun 09:55:45 AM 41.7833 -87.9000 255° West 250 288 3,900 682 Climbing Chicago TRACON
Sun 09:56:13 AM 41.7678 -87.9486 247° West 251 289 4,000 67 Climbing Chicago Center
Sun 09:57:15 AM 41.7558 -88.0461 261° West 262 302 4,000 195 Level Chicago Center
Sun 09:58:16 AM 41.7517 -88.1461 267° West 271 312 4,400 1,707 Climbing Chicago Center
Sun 09:59:18 AM 41.7494 -88.2469 268° West 273 314 7,500 3,122 Climbing Chicago Center
Sun 10:00:19 AM 41.7458 -88.3544 267° West 286 329 10,800 3,073 Climbing Chicago Center
Sun 10:01:21 AM 41.7411 -88.4647 267° West 299 344 13,800 2,732 Climbing Chicago Center
Sun 10:02:22 AM 41.7139 -88.6025 255° West 320 368 16,400 2,195 Climbing Chicago Center
Sun 10:03:24 AM 41.6894 -88.7375 256° West 373 429 18,300 2,000 Climbing Chicago Center
Sun 10:04:25 AM 41.6628 -88.8794 256° West 392 451 20,500 2,146 Climbing Chicago Center
Sun 10:05:27 AM 41.6350 -89.0275 256° West 410 472 22,700 1,220 Climbing Chicago Center
Sun 10:06:28 AM 41.6069 -89.1794 256° West 421 484 23,000 780 Climbing Chicago Center
Sun 10:07:30 AM 41.5792 -89.3314 256° West 425 489 24,300 1,659 Climbing Chicago Center
Sun 10:08:31 AM 41.5436 -89.5167 256° West 431 496 26,400 1,694 Climbing Chicago Center
Sun 10:09:34 AM 41.5158 -89.6553 255° West 443 510 27,800 1,403 Climbing Chicago Center
Sun 10:10:35 AM 41.4856 -89.8167 256° West 449 517 29,300 1,770 Climbing Chicago Center
Sun 10:11:36 AM 41.4464 -90.0117 255° West 456 525 31,400 1,756 Climbing Chicago Center
Sun 10:12:38 AM 41.4150 -90.1708 255° West 449 517 32,900 1,463 Climbing Chicago Center
Sun 10:13:39 AM 41.3769 -90.3275 252° West 449 517 34,400 1,268 Climbing Chicago Center
Sun 10:14:41 AM 41.3411 -90.4831 253° West 444 511 35,500 1,065 Climbing Chicago Center
Sun 10:15:43 AM 41.3028 -90.6425 252° West 453 521 36,600 1,210 Climbing Chicago Center
Sun 10:16:45 AM 41.2656 -90.7961 252° West 442 509 38,000 683 Climbing Chicago Center
Sun 10:17:46 AM 41.2297 -90.9458 252° West 429 494 38,000  Level Chicago Center
Sun 10:18:48 AM 41.1844 -91.1264 252° West 431 496 38,000  Level Chicago Center
Sun 10:19:49 AM 41.1489 -91.2792 253° West 434 499 38,000  Level Chicago Center
Sun 10:20:51 AM 41.1108 -91.4306 252° West 435 501 38,000  Level Chicago Center
Sun 10:21:53 AM 41.0733 -91.5833 252° West 436 502 38,000  Level Chicago Center
Sun 10:22:55 AM 41.0314 -91.7542 252° West 440 506 38,000  Level Chicago Center
Sun 10:23:56 AM 40.9925 -91.9036 251° West 435 501 38,000  Level Chicago Center
Sun 10:24:58 AM 40.9558 -92.0547 252° West 435 501 38,000  Level Chicago Center
Sun 10:26:00 AM 40.9183 -92.2042 252° West 433 498 38,000  Level Chicago Center
Sun 10:27:01 AM 40.8789 -92.3542 251° West 437 503 38,000  Level Chicago Center
Sun 10:28:03 AM 40.8342 -92.5325 252° West 432 497 38,000  Level Chicago Center
Sun 10:29:04 AM 40.7958 -92.6778 251° West 427 491 38,000  Level Chicago Center
Sun 10:30:06 AM 40.7581 -92.8250 251° West 428 493 38,000  Level Chicago Center
Sun 10:30:48 AM 40.7344 -92.9147 251° West 429 494 38,000  Level Minneapolis Center
Sun 10:31:50 AM 40.6889 -93.0861 251° West 423 487 38,000  Level Minneapolis Center
Sun 10:32:51 AM 40.6517 -93.2303 251° West 423 487 38,000  Level Minneapolis Center
Sun 10:33:53 AM 40.6142 -93.3719 251° West 419 482 38,000  Level Minneapolis Center
Sun 10:34:55 AM 40.5744 -93.5189 250° West 425 489 38,000  Level Minneapolis Center
Sun 10:35:56 AM 40.5339 -93.6644 250° West 428 493 38,000  Level Minneapolis Center
Sun 10:36:58 AM 40.4856 -93.8397 250° West 429 494 38,000  Level Minneapolis Center
Sun 10:37:59 AM 40.4450 -93.9872 250° West 432 497 38,000  Level Minneapolis Center
Sun 10:39:01 AM 40.4056 -94.1342 251° West 431 496 38,000  Level Minneapolis Center
Sun 10:40:03 AM 40.3647 -94.2819 250° West 434 499 38,000  Level Minneapolis Center
Sun 10:41:04 AM 40.3236 -94.4297 250° West 434 499 38,000  Level Minneapolis Center
Sun 10:42:06 AM 40.2781 -94.5950 250° West 437 503 38,000  Level Minneapolis Center
Sun 10:43:08 AM 40.2353 -94.7453 250° West 437 503 38,000  Level Minneapolis Center
Sun 10:44:09 AM 40.1931 -94.8944 250° West 438 504 38,000  Level Minneapolis Center
Sun 10:45:11 AM 40.1517 -95.0431 250° West 435 501 38,000  Level Minneapolis Center
Sun 10:46:13 AM 40.1103 -95.1908 250° West 434 499 38,000  Level Minneapolis Center
Sun 10:47:14 AM 40.0592 -95.3683 249° West 433 498 38,000  Level Minneapolis Center
Sun 10:48:16 AM 40.0172 -95.5156 250° West 433 498 38,000  Level Minneapolis Center
Sun 10:49:18 AM 39.9753 -95.6608 249° West 429 494 38,000  Level Minneapolis Center
Sun 10:50:19 AM 39.9325 -95.8058 249° West 428 493 38,000  Level Minneapolis Center
Sun 10:51:33 AM 39.8806 -95.9814 249° West 430 495 38,000  Level Minneapolis Center
Sun 10:52:35 AM 39.8367 -96.1242 248° West 434 499 38,000  Level Kansas Center
Sun 10:53:36 AM 39.7889 -96.2875 249° West 436 502 38,000  Level Kansas Center
Sun 10:54:38 AM 39.7444 -96.4344 249° West 437 503 38,000  Level Kansas Center
Sun 10:55:40 AM 39.7003 -96.5831 249° West 441 507 38,000  Level Kansas Center
Sun 10:56:41 AM 39.6550 -96.7311 248° West 440 506 38,000  Level Kansas Center
Sun 10:57:43 AM 39.6111 -96.8769 249° West 438 504 38,000  Level Kansas Center
Sun 10:58:45 AM 39.5667 -97.0222 248° West 436 502 38,000  Level Kansas Center
Sun 10:59:47 AM 39.5117 -97.2022 248° West 437 503 38,000  Level Kansas Center
Sun 11:00:49 AM 39.4678 -97.3397 248° West 435 501 38,000  Level Kansas Center
Sun 11:01:50 AM 39.4253 -97.4797 249° West 437 503 38,000  Level Kansas Center
Sun 11:02:52 AM 39.3764 -97.6378 248° West 437 503 38,000  Level Kansas Center
Sun 11:03:54 AM 39.3311 -97.7828 248° West 435 501 38,000  Level Kansas Center
Sun 11:04:56 AM 39.2792 -97.9419 247° West 436 502 38,000  Level Kansas Center
Sun 11:05:58 AM 39.2361 -98.0797 248° West 435 501 38,000  Level Kansas Center
Sun 11:07:00 AM 39.1853 -98.2406 248° West 441 507 38,000  Level Kansas Center
Sun 11:08:02 AM 39.1389 -98.3853 248° West 441 507 38,000  Level Kansas Center
Sun 11:09:03 AM 39.0917 -98.5303 247° West 441 507 38,000  Level Kansas Center
Sun 11:10:05 AM 39.0447 -98.6764 248° West 443 510 38,000  Level Kansas Center
Sun 11:11:07 AM 38.9956 -98.8275 247° West 446 513 38,000  Level Kansas Center
Sun 11:11:49 AM 38.9542 -98.9542 247° West 448 516 38,000  Level Denver Center
Sun 11:12:51 AM 38.9103 -99.0875 247° West 452 520 38,000  Level Denver Center
Sun 11:13:53 AM 38.8547 -99.2522 247° West 452 520 38,000  Level Denver Center
Sun 11:14:13 AM 38.8403 -99.2978 248° West 458 527 38,000  Level Kansas Center
Sun 11:15:15 AM 38.7914 -99.4433 247° West 451 519 38,000  Level Kansas Center
Sun 11:15:57 AM 38.7539 -99.5575 247° West 449 517 38,000  Level Denver Center
Sun 11:16:59 AM 38.7061 -99.6978 246° West 451 519 38,000  Level Denver Center
Sun 11:18:00 AM 38.6511 -99.8606 247° West 449 517 38,000  Level Denver Center
Sun 11:19:02 AM 38.6039 -99.9997 247° West 448 516 38,000  Level Denver Center
Sun 11:20:04 AM 38.5475 -100.1586 246° West 443 510 38,000  Level Denver Center
Sun 11:21:06 AM 38.5000 -100.3000 247° West 449 517 38,000  Level Denver Center
Sun 11:22:08 AM 38.4444 -100.4631 247° West 451 519 38,000  Level Denver Center
Sun 11:23:10 AM 38.3961 -100.6006 246° West 448 516 38,000  Level Denver Center
Sun 11:24:12 AM 38.3397 -100.7633 246° West 450 518 38,000  Level Denver Center
Sun 11:25:14 AM 38.2903 -100.9017 246° West 451 519 38,000  Level Denver Center
Sun 11:26:16 AM 38.2331 -101.0625 246° West 450 518 38,000  Level Denver Center
Sun 11:27:18 AM 38.1850 -101.2008 246° West 450 518 38,000  Level Denver Center
Sun 11:28:20 AM 38.1267 -101.3619 245° Southwest 452 520 38,000  Level Denver Center
Sun 11:29:22 AM 38.0778 -101.4994 246° West 450 518 38,000  Level Denver Center
Sun 11:30:23 AM 38.0367 -101.6131 245° Southwest 447 514 38,000  Level Denver Center
Sun 11:31:26 AM 37.9725 -101.7947 246° West 444 511 38,000  Level Denver Center
Sun 11:32:27 AM 37.9300 -101.9322 249° West 441 507 38,000  Level Denver Center
Sun 11:33:29 AM 37.8789 -102.0922 248° West 440 506 38,000  Level Denver Center
Sun 11:34:31 AM 37.8436 -102.2069 249° West 440 506 38,000  Level Denver Center
Sun 11:35:33 AM 37.7931 -102.3667 248° West 439 505 38,000  Level Denver Center
Sun 11:36:35 AM 37.7408 -102.5275 248° West 444 511 38,000  Level Denver Center
Sun 11:37:37 AM 37.6903 -102.6889 248° West 444 511 38,000  Level Denver Center
Sun 11:38:39 AM 37.6456 -102.8253 248° West 440 506 38,000  Level Denver Center
Sun 11:39:41 AM 37.5931 -102.9858 248° West 442 509 38,000  Level Denver Center
Sun 11:40:43 AM 37.5486 -103.1244 248° West 445 512 38,000  Level Denver Center
Sun 11:41:57 AM 37.5033 -103.2611 247° West 441 507 38,000  Level Denver Center
Sun 11:42:59 AM 37.4431 -103.4431 247° West 440 506 38,000  Level Denver Center
Sun 11:44:01 AM 37.3911 -103.6019 248° West 438 504 38,000  Level Denver Center
Sun 11:45:03 AM 37.3453 -103.7383 247° West 439 505 38,000  Level Denver Center
Sun 11:46:05 AM 37.2992 -103.8750 247° West 439 505 38,000  Level Denver Center
Sun 11:47:07 AM 37.2453 -104.0350 247° West 440 506 38,000  Level Denver Center
Sun 11:48:09 AM 37.1983 -104.1725 247° West 442 509 38,000  Level Denver Center
Sun 11:49:11 AM 37.1444 -104.3319 247° West 444 511 38,000  Level Denver Center
Sun 11:50:13 AM 37.0978 -104.4678 247° West 442 509 38,000  Level Denver Center
Sun 11:51:15 AM 37.0436 -104.6267 247° West 443 510 38,000  Level Denver Center
Sun 11:52:17 AM 36.9972 -104.7611 247° West 441 507 38,000  Level Denver Center
Sun 11:53:19 AM 36.9528 -104.8903 247° West 441 507 38,000  Level Denver Center
Sun 11:54:20 AM 36.8942 -105.0558 246° West 437 503 38,000  Level Denver Center
Sun 11:54:59 AM 36.8647 -105.1372 246° West 437 503 38,000  Level Albuquerque Center
Sun 11:56:01 AM 36.8189 -105.2700 247° West 436 502 38,000  Level Albuquerque Center
Sun 11:57:02 AM 36.7653 -105.4233 246° West 433 498 38,000  Level Albuquerque Center
Sun 11:57:26 AM 36.7506 -105.4694 248° West 432 497 38,000  Level Denver Center
Sun 11:58:28 AM 36.6931 -105.6275 246° West 436 502 38,000  Level Denver Center
Sun 11:59:30 AM 36.6456 -105.7564 245° Southwest 437 503 38,000  Level Denver Center
Sun 12:00:08 PM 36.6183 -105.8239 243° Southwest 435 501 38,000  Level Albuquerque Center
Sun 12:01:10 PM 36.5664 -105.9853 248° West 448 516 38,000  Level Albuquerque Center
Sun 12:02:12 PM 36.5103 -106.1397 246° West 441 507 38,000  Level Albuquerque Center
Sun 12:03:14 PM 36.4631 -106.2736 246° West 441 507 38,000  Level Albuquerque Center
Sun 12:04:16 PM 36.4050 -106.4267 245° Southwest 439 505 38,000  Level Albuquerque Center
Sun 12:05:18 PM 36.3564 -106.5583 245° Southwest 438 504 38,000  Level Albuquerque Center
Sun 12:06:20 PM 36.3008 -106.7133 246° West 439 505 38,000  Level Albuquerque Center
Sun 12:07:22 PM 36.2522 -106.8447 245° Southwest 439 505 38,000  Level Albuquerque Center
Sun 12:08:24 PM 36.1944 -106.9983 245° Southwest 438 504 38,000  Level Albuquerque Center
Sun 12:09:26 PM 36.1464 -107.1258 245° Southwest 441 507 38,000  Level Albuquerque Center
Sun 12:10:28 PM 36.0875 -107.2853 245° Southwest 443 510 38,000  Level Albuquerque Center
Sun 12:11:30 PM 36.0381 -107.4175 245° Southwest 442 509 38,000  Level Albuquerque Center
Sun 12:12:32 PM 35.9881 -107.5506 245° Southwest 444 511 38,000  Level Albuquerque Center
Sun 12:13:34 PM 35.9292 -107.7064 245° Southwest 446 513 38,000  Level Albuquerque Center
Sun 12:14:36 PM 35.8789 -107.8372 245° Southwest 443 510 38,000  Level Albuquerque Center
Sun 12:15:38 PM 35.8067 -107.9836 239° Southwest 446 513 38,000  Level Albuquerque Center
Sun 12:16:40 PM 35.7386 -108.1061 236° Southwest 449 517 38,000  Level Albuquerque Center
Sun 12:17:42 PM 35.6600 -108.2472 236° Southwest 447 514 38,000  Level Albuquerque Center
Sun 12:18:44 PM 35.5917 -108.3686 235° Southwest 447 514 38,000  Level Albuquerque Center
Sun 12:19:46 PM 35.5128 -108.5111 236° Southwest 448 516 38,000  Level Albuquerque Center
Sun 12:20:48 PM 35.4442 -108.6344 236° Southwest 452 520 38,000  Level Albuquerque Center
Sun 12:21:50 PM 35.3744 -108.7561 235° Southwest 453 521 38,000  Level Albuquerque Center
Sun 12:22:52 PM 35.2939 -108.8986 235° Southwest 453 521 38,000  Level Albuquerque Center
Sun 12:23:54 PM 35.2244 -109.0214 235° Southwest 456 525 38,000  Level Albuquerque Center
Sun 12:24:56 PM 35.1422 -109.1658 235° Southwest 460 529 38,000  Level Albuquerque Center
Sun 12:25:58 PM 35.0711 -109.2897 235° Southwest 463 533 38,000  Level Albuquerque Center
Sun 12:27:00 PM 34.9889 -109.4339 235° Southwest 462 532 38,000 -194 Level Albuquerque Center
Sun 12:28:02 PM 34.9175 -109.5503 233° Southwest 454 522 37,600 -726 Descending Albuquerque Center
Sun 12:29:04 PM 34.8344 -109.6956 235° Southwest 460 529 36,500 -1,306 Descending Albuquerque Center
Sun 12:30:06 PM 34.7494 -109.8028 226° Southwest 461 531 34,900 -2,081 Descending Albuquerque Center
Sun 12:31:08 PM 34.6825 -109.9253 236° Southwest 459 528 32,200 -1,403 Descending Albuquerque Center
Sun 12:32:10 PM 34.6244 -110.0822 246° West 457 526 32,000 -97 Descending Albuquerque Center
Sun 12:33:12 PM 34.5772 -110.2211 248° West 459 528 32,000  Level Albuquerque Center
Sun 12:34:14 PM 34.5172 -110.3694 244° Southwest 440 506 32,000 -48 Level Albuquerque Center
Sun 12:35:16 PM 34.4653 -110.5161 247° West 445 512 31,900 -1,210 Descending Albuquerque Center
Sun 12:36:18 PM 34.4142 -110.6503 245° Southwest 442 509 29,500 -2,177 Descending Albuquerque Center
Sun 12:37:20 PM 34.3597 -110.7786 243° Southwest 433 498 27,400 -1,984 Descending Albuquerque Center
Sun 12:38:22 PM 34.2856 -110.8856 230° Southwest 419 482 25,400 -1,839 Descending Albuquerque Center
Sun 12:39:24 PM 34.2086 -110.9847 227° Southwest 407 468 23,600 -1,935 Descending Albuquerque Center
Sun 12:40:26 PM 34.1347 -111.0800 227° Southwest 397 457 21,400 -2,177 Descending Albuquerque Center
Sun 12:41:28 PM 34.0489 -111.1894 227° Southwest 380 437 19,100 -2,016 Descending Albuquerque Center
Sun 12:42:31 PM 33.9792 -111.2794 227° Southwest 370 426 17,200 -1,776 Descending Albuquerque Center
Sun 12:43:33 PM 33.9106 -111.3692 227° Southwest 363 418 15,400 -1,355 Descending Albuquerque Center
Sun 12:44:35 PM 33.8531 -111.4592 232° Southwest 338 389 14,400 -1,258 Descending Albuquerque Center
Sun 12:45:37 PM 33.8050 -111.5514 238° Southwest 324 373 12,800 -1,548 Descending Albuquerque Center
Sun 12:46:39 PM 33.7572 -111.6408 237° Southwest 317 365 11,200 -1,355 Descending Albuquerque Center
Sun 12:47:41 PM 33.7100 -111.7292 237° Southwest 313 360 10,000 -629 Descending Albuquerque Center
Sun 12:48:43 PM 33.6642 -111.8125 237° Southwest 301 346 9,900 -484 Descending Albuquerque Center
Sun 12:49:45 PM 33.6114 -111.9072 236° Southwest 284 327 9,000 -677 Descending Albuquerque Center
Sun 12:50:47 PM 33.5744 -111.9783 238° Southwest 255 293 8,500 -823 Descending Albuquerque Center
Sun 12:51:49 PM 33.5375 -112.0489 238° Southwest 250 288 7,300 -1,113 Descending Albuquerque Center
Sun 12:52:51 PM 33.5250 -112.1269 259° West 248 285 6,200 -968 Descending Albuquerque Center
Sun 12:53:53 PM 33.5000 -112.1839 242° Southwest 206 237 5,300 -1,113 Descending Albuquerque Center
Sun 12:54:55 PM 33.4550 -112.1547 152° Southeast 183 211 3,900 -1,452 Descending Albuquerque Center
Sun 12:55:57 PM 33.4408 -112.0903 105° East 174 200 2,300 -1,210 Descending Albuquerque Center
Sun 12:56:59 PM 33.4414 -112.0394 89° East 156 180 1,400 -581 Descending Albuquerque Center
Sun 12:58:01 PM 33.4414 -111.9936 90° East 149 171 1,100 -290 Descending Albuquerque Center

Login

Don't have an account? Register now (free) for customized features, flight alerts, and more!